sensor_id;sensor_type;location;lat;lon;timestamp;temperature;humidity
75210;DHT22;63796;53.136;14.882;2023-09-18T00:00:44;16.80;99.90
75210;DHT22;63796;53.136;14.882;2023-09-18T00:03:32;16.90;99.90
75210;DHT22;63796;53.136;14.882;2023-09-18T00:05:59;17.00;99.90
75210;DHT22;63796;53.136;14.882;2023-09-18T00:08:27;17.00;99.90
75210;DHT22;63796;53.136;14.882;2023-09-18T00:10:54;16.90;99.90
75210;DHT22;63796;53.136;14.882;2023-09-18T00:13:22;16.90;99.90
75210;DHT22;63796;53.136;14.882;2023-09-18T00:15:53;16.80;99.90
75210;DHT22;63796;53.136;14.882;2023-09-18T00:18:21;16.60;99.90
75210;DHT22;63796;53.136;14.882;2023-09-18T00:20:50;16.60;99.90
75210;DHT22;63796;53.136;14.882;2023-09-18T00:23:19;16.60;99.90
75210;DHT22;63796;53.136;14.882;2023-09-18T00:25:46;16.60;99.90
75210;DHT22;63796;53.136;14.882;2023-09-18T00:28:13;16.60;99.90
75210;DHT22;63796;53.136;14.882;2023-09-18T00:30:48;16.60;99.90
75210;DHT22;63796;53.136;14.882;2023-09-18T00:33:17;16.70;99.90
75210;DHT22;63796;53.136;14.882;2023-09-18T00:35:47;16.70;99.90
75210;DHT22;63796;53.136;14.882;2023-09-18T00:38:15;16.80;99.90
75210;DHT22;63796;53.136;14.882;2023-09-18T00:40:43;16.70;99.90
75210;DHT22;63796;53.136;14.882;2023-09-18T00:43:11;16.60;99.90
75210;DHT22;63796;53.136;14.882;2023-09-18T00:45:40;16.60;99.90
75210;DHT22;63796;53.136;14.882;2023-09-18T00:48:09;16.70;99.90
75210;DHT22;63796;53.136;14.882;2023-09-18T00:50:36;16.60;99.90
75210;DHT22;63796;53.136;14.882;2023-09-18T00:53:04;16.60;99.90
75210;DHT22;63796;53.136;14.882;2023-09-18T00:55:36;16.60;99.90
75210;DHT22;63796;53.136;14.882;2023-09-18T00:58:07;16.60;99.90
75210;DHT22;63796;53.136;14.882;2023-09-18T01:00:34;16.60;99.90
75210;DHT22;63796;53.136;14.882;2023-09-18T01:03:02;16.60;99.90
75210;DHT22;63796;53.136;14.882;2023-09-18T01:05:32;16.60;99.90
75210;DHT22;63796;53.136;14.882;2023-09-18T01:08:00;16.60;99.90
75210;DHT22;63796;53.136;14.882;2023-09-18T01:10:36;16.40;99.90
75210;DHT22;63796;53.136;14.882;2023-09-18T01:13:29;16.30;99.90
75210;DHT22;63796;53.136;14.882;2023-09-18T01:16:02;16.40;99.90
75210;DHT22;63796;53.136;14.882;2023-09-18T01:18:37;16.30;99.90
75210;DHT22;63796;53.136;14.882;2023-09-18T01:21:04;16.40;99.90
75210;DHT22;63796;53.136;14.882;2023-09-18T01:23:31;16.50;99.90
75210;DHT22;63796;53.136;14.882;2023-09-18T01:25:58;16.50;99.90
75210;DHT22;63796;53.136;14.882;2023-09-18T01:28:26;16.50;99.90
75210;DHT22;63796;53.136;14.882;2023-09-18T01:30:53;16.50;99.90
75210;DHT22;63796;53.136;14.882;2023-09-18T01:33:20;16.40;99.90
75210;DHT22;63796;53.136;14.882;2023-09-18T01:35:50;16.50;99.90
75210;DHT22;63796;53.136;14.882;2023-09-18T01:38:22;16.40;99.90
75210;DHT22;63796;53.136;14.882;2023-09-18T01:40:52;16.40;99.90
75210;DHT22;63796;53.136;14.882;2023-09-18T01:43:20;16.40;99.90
75210;DHT22;63796;53.136;14.882;2023-09-18T01:45:48;16.40;99.90
75210;DHT22;63796;53.136;14.882;2023-09-18T01:48:16;16.40;99.90
75210;DHT22;63796;53.136;14.882;2023-09-18T01:50:43;16.50;99.90
75210;DHT22;63796;53.136;14.882;2023-09-18T01:53:11;16.50;99.90
75210;DHT22;63796;53.136;14.882;2023-09-18T01:55:38;16.50;99.90
75210;DHT22;63796;53.136;14.882;2023-09-18T01:58:06;16.50;99.90
75210;DHT22;63796;53.136;14.882;2023-09-18T02:00:34;16.60;99.90
75210;DHT22;63796;53.136;14.882;2023-09-18T02:03:02;16.70;99.90
75210;DHT22;63796;53.136;14.882;2023-09-18T02:05:50;16.70;99.90
75210;DHT22;63796;53.136;14.882;2023-09-18T02:08:18;16.90;99.90
75210;DHT22;63796;53.136;14.882;2023-09-18T02:14:05;16.80;99.90
75210;DHT22;63796;53.136;14.882;2023-09-18T02:16:33;16.80;99.90
75210;DHT22;63796;53.136;14.882;2023-09-18T02:19:04;16.80;99.90
75210;DHT22;63796;53.136;14.882;2023-09-18T02:21:32;16.90;99.90
75210;DHT22;63796;53.136;14.882;2023-09-18T02:23:59;16.80;99.90
75210;DHT22;63796;53.136;14.882;2023-09-18T02:26:27;16.80;99.90
75210;DHT22;63796;53.136;14.882;2023-09-18T02:28:57;16.80;99.90
75210;DHT22;63796;53.136;14.882;2023-09-18T02:31:27;16.80;99.90
75210;DHT22;63796;53.136;14.882;2023-09-18T02:33:55;16.90;99.90
75210;DHT22;63796;53.136;14.882;2023-09-18T02:36:23;16.90;99.90
75210;DHT22;63796;53.136;14.882;2023-09-18T02:38:50;16.90;99.90
75210;DHT22;63796;53.136;14.882;2023-09-18T02:41:18;16.90;99.90
75210;DHT22;63796;53.136;14.882;2023-09-18T02:43:46;17.00;99.90
75210;DHT22;63796;53.136;14.882;2023-09-18T02:46:14;16.90;99.90
75210;DHT22;63796;53.136;14.882;2023-09-18T02:48:41;16.80;99.90
75210;DHT22;63796;53.136;14.882;2023-09-18T02:51:09;16.80;99.90
75210;DHT22;63796;53.136;14.882;2023-09-18T02:53:37;16.70;99.90
75210;DHT22;63796;53.136;14.882;2023-09-18T02:56:04;16.70;99.90
75210;DHT22;63796;53.136;14.882;2023-09-18T02:58:32;16.50;99.90
75210;DHT22;63796;53.136;14.882;2023-09-18T03:00:59;16.40;99.90
75210;DHT22;63796;53.136;14.882;2023-09-18T03:03:27;16.40;99.90
75210;DHT22;63796;53.136;14.882;2023-09-18T03:05:59;16.40;99.90
75210;DHT22;63796;53.136;14.882;2023-09-18T03:08:31;16.30;99.90
75210;DHT22;63796;53.136;14.882;2023-09-18T03:10:58;16.40;99.90
75210;DHT22;63796;53.136;14.882;2023-09-18T03:13:27;16.40;99.90
75210;DHT22;63796;53.136;14.882;2023-09-18T03:15:55;16.50;99.90
75210;DHT22;63796;53.136;14.882;2023-09-18T03:18:23;16.50;99.90
75210;DHT22;63796;53.136;14.882;2023-09-18T03:20:51;16.50;99.90
75210;DHT22;63796;53.136;14.882;2023-09-18T03:23:18;16.60;99.90
75210;DHT22;63796;53.136;14.882;2023-09-18T03:25:45;16.70;99.90
75210;DHT22;63796;53.136;14.882;2023-09-18T03:28:16;16.60;99.90
75210;DHT22;63796;53.136;14.882;2023-09-18T03:30:45;16.60;99.90
75210;DHT22;63796;53.136;14.882;2023-09-18T03:33:13;16.50;99.90
75210;DHT22;63796;53.136;14.882;2023-09-18T03:35:47;16.50;99.90
75210;DHT22;63796;53.136;14.882;2023-09-18T03:38:16;16.50;99.90
75210;DHT22;63796;53.136;14.882;2023-09-18T03:40:44;16.60;99.90
75210;DHT22;63796;53.136;14.882;2023-09-18T03:43:12;16.60;99.90
75210;DHT22;63796;53.136;14.882;2023-09-18T03:45:39;16.60;99.90
75210;DHT22;63796;53.136;14.882;2023-09-18T03:48:10;16.60;99.90
75210;DHT22;63796;53.136;14.882;2023-09-18T03:50:38;16.70;99.90
75210;DHT22;63796;53.136;14.882;2023-09-18T03:53:08;16.70;99.90
75210;DHT22;63796;53.136;14.882;2023-09-18T03:55:36;16.70;99.90
75210;DHT22;63796;53.136;14.882;2023-09-18T03:58:05;16.70;99.90
75210;DHT22;63796;53.136;14.882;2023-09-18T04:00:32;16.70;99.90
75210;DHT22;63796;53.136;14.882;2023-09-18T04:03:00;16.70;99.90
75210;DHT22;63796;53.136;14.882;2023-09-18T04:05:27;16.70;99.90
75210;DHT22;63796;53.136;14.882;2023-09-18T04:07:55;16.70;99.90
75210;DHT22;63796;53.136;14.882;2023-09-18T04:10:23;16.70;99.90
75210;DHT22;63796;53.136;14.882;2023-09-18T04:12:51;16.60;99.90
75210;DHT22;63796;53.136;14.882;2023-09-18T04:15:19;16.50;99.90
75210;DHT22;63796;53.136;14.882;2023-09-18T04:17:47;16.50;99.90
75210;DHT22;63796;53.136;14.882;2023-09-18T04:20:15;16.50;99.90
75210;DHT22;63796;53.136;14.882;2023-09-18T04:22:43;16.60;99.90
75210;DHT22;63796;53.136;14.882;2023-09-18T04:25:12;16.70;99.90
75210;DHT22;63796;53.136;14.882;2023-09-18T04:27:40;16.60;99.90
75210;DHT22;63796;53.136;14.882;2023-09-18T04:30:07;16.50;99.90
75210;DHT22;63796;53.136;14.882;2023-09-18T04:32:38;16.50;99.90
75210;DHT22;63796;53.136;14.882;2023-09-18T04:35:08;16.50;99.90
75210;DHT22;63796;53.136;14.882;2023-09-18T04:37:36;16.50;99.90
75210;DHT22;63796;53.136;14.882;2023-09-18T04:40:05;16.60;99.90
75210;DHT22;63796;53.136;14.882;2023-09-18T04:42:38;16.60;99.90
75210;DHT22;63796;53.136;14.882;2023-09-18T04:45:07;16.60;99.90
75210;DHT22;63796;53.136;14.882;2023-09-18T04:47:35;16.70;99.90
75210;DHT22;63796;53.136;14.882;2023-09-18T04:50:03;16.70;99.90
75210;DHT22;63796;53.136;14.882;2023-09-18T04:52:37;16.70;99.90
75210;DHT22;63796;53.136;14.882;2023-09-18T04:55:05;16.70;99.90
75210;DHT22;63796;53.136;14.882;2023-09-18T04:57:33;16.70;99.90
75210;DHT22;63796;53.136;14.882;2023-09-18T05:00:02;16.70;99.90
75210;DHT22;63796;53.136;14.882;2023-09-18T05:02:43;16.60;99.90
75210;DHT22;63796;53.136;14.882;2023-09-18T05:05:11;16.60;99.90
75210;DHT22;63796;53.136;14.882;2023-09-18T05:07:41;16.60;99.90
75210;DHT22;63796;53.136;14.882;2023-09-18T05:10:09;16.70;99.90
75210;DHT22;63796;53.136;14.882;2023-09-18T05:12:38;16.80;99.90
75210;DHT22;63796;53.136;14.882;2023-09-18T05:15:06;16.80;99.90
75210;DHT22;63796;53.136;14.882;2023-09-18T05:17:40;16.80;99.90
75210;DHT22;63796;53.136;14.882;2023-09-18T05:20:19;16.80;99.90
75210;DHT22;63796;53.136;14.882;2023-09-18T05:22:47;16.90;99.90
75210;DHT22;63796;53.136;14.882;2023-09-18T05:25:14;16.90;99.90
75210;DHT22;63796;53.136;14.882;2023-09-18T05:27:42;17.00;99.90
75210;DHT22;63796;53.136;14.882;2023-09-18T05:30:17;17.00;99.90
75210;DHT22;63796;53.136;14.882;2023-09-18T05:32:48;17.10;99.90
75210;DHT22;63796;53.136;14.882;2023-09-18T05:35:16;17.30;99.90
75210;DHT22;63796;53.136;14.882;2023-09-18T05:37:45;17.50;99.90
75210;DHT22;63796;53.136;14.882;2023-09-18T05:40:13;17.80;99.90
75210;DHT22;63796;53.136;14.882;2023-09-18T05:42:41;18.10;99.90
75210;DHT22;63796;53.136;14.882;2023-09-18T05:45:11;18.40;99.90
75210;DHT22;63796;53.136;14.882;2023-09-18T05:47:39;18.60;99.90
75210;DHT22;63796;53.136;14.882;2023-09-18T05:50:08;18.80;99.90
75210;DHT22;63796;53.136;14.882;2023-09-18T05:52:37;19.00;99.90
75210;DHT22;63796;53.136;14.882;2023-09-18T05:55:05;18.90;99.90
75210;DHT22;63796;53.136;14.882;2023-09-18T05:57:34;18.80;99.90
75210;DHT22;63796;53.136;14.882;2023-09-18T06:00:02;18.90;99.90
75210;DHT22;63796;53.136;14.882;2023-09-18T06:02:30;18.70;99.90
75210;DHT22;63796;53.136;14.882;2023-09-18T06:04:58;18.70;99.90
75210;DHT22;63796;53.136;14.882;2023-09-18T06:07:27;18.80;99.90
75210;DHT22;63796;53.136;14.882;2023-09-18T06:09:55;18.90;99.90
75210;DHT22;63796;53.136;14.882;2023-09-18T06:12:24;18.80;99.90
75210;DHT22;63796;53.136;14.882;2023-09-18T06:14:53;18.80;99.90
75210;DHT22;63796;53.136;14.882;2023-09-18T06:17:20;18.80;99.90
75210;DHT22;63796;53.136;14.882;2023-09-18T06:19:49;19.20;99.90
75210;DHT22;63796;53.136;14.882;2023-09-18T06:22:17;19.50;99.90
75210;DHT22;63796;53.136;14.882;2023-09-18T06:24:44;20.70;99.90
75210;DHT22;63796;53.136;14.882;2023-09-18T06:27:11;22.10;99.90
75210;DHT22;63796;53.136;14.882;2023-09-18T06:29:39;22.60;99.90
75210;DHT22;63796;53.136;14.882;2023-09-18T06:32:08;23.70;99.90
75210;DHT22;63796;53.136;14.882;2023-09-18T06:34:36;24.80;99.90
75210;DHT22;63796;53.136;14.882;2023-09-18T06:37:03;24.50;99.90
75210;DHT22;63796;53.136;14.882;2023-09-18T06:39:31;24.90;99.90
75210;DHT22;63796;53.136;14.882;2023-09-18T06:41:58;25.00;99.90
75210;DHT22;63796;53.136;14.882;2023-09-18T06:44:26;24.70;99.90
75210;DHT22;63796;53.136;14.882;2023-09-18T06:46:53;24.50;99.90
75210;DHT22;63796;53.136;14.882;2023-09-18T06:49:21;24.40;99.90
75210;DHT22;63796;53.136;14.882;2023-09-18T06:51:48;23.90;99.90
75210;DHT22;63796;53.136;14.882;2023-09-18T06:54:16;22.80;99.90
75210;DHT22;63796;53.136;14.882;2023-09-18T06:56:43;22.70;99.90
75210;DHT22;63796;53.136;14.882;2023-09-18T06:59:11;22.50;99.90
75210;DHT22;63796;53.136;14.882;2023-09-18T07:01:39;22.50;99.90
75210;DHT22;63796;53.136;14.882;2023-09-18T07:04:09;22.60;99.90
75210;DHT22;63796;53.136;14.882;2023-09-18T07:06:37;22.60;99.90
75210;DHT22;63796;53.136;14.882;2023-09-18T07:09:05;22.50;99.90
75210;DHT22;63796;53.136;14.882;2023-09-18T07:11:34;22.60;99.90
75210;DHT22;63796;53.136;14.882;2023-09-18T07:14:02;22.90;99.90
75210;DHT22;63796;53.136;14.882;2023-09-18T07:16:33;23.60;99.90
75210;DHT22;63796;53.136;14.882;2023-09-18T07:19:01;23.60;99.90
75210;DHT22;63796;53.136;14.882;2023-09-18T07:21:32;23.40;99.90
75210;DHT22;63796;53.136;14.882;2023-09-18T07:24:01;23.60;99.90
75210;DHT22;63796;53.136;14.882;2023-09-18T07:26:29;23.20;99.90
75210;DHT22;63796;53.136;14.882;2023-09-18T07:28:56;23.10;99.90
75210;DHT22;63796;53.136;14.882;2023-09-18T07:31:28;23.50;99.90
75210;DHT22;63796;53.136;14.882;2023-09-18T07:33:55;23.40;99.90
75210;DHT22;63796;53.136;14.882;2023-09-18T07:36:23;23.40;99.90
75210;DHT22;63796;53.136;14.882;2023-09-18T07:38:51;23.30;99.90
75210;DHT22;63796;53.136;14.882;2023-09-18T07:41:19;23.50;99.90
75210;DHT22;63796;53.136;14.882;2023-09-18T07:43:48;24.00;99.90
75210;DHT22;63796;53.136;14.882;2023-09-18T07:46:16;24.00;99.90
75210;DHT22;63796;53.136;14.882;2023-09-18T07:48:43;23.90;99.90
75210;DHT22;63796;53.136;14.882;2023-09-18T07:51:11;23.80;99.90
75210;DHT22;63796;53.136;14.882;2023-09-18T07:53:40;24.00;99.90
75210;DHT22;63796;53.136;14.882;2023-09-18T07:56:08;24.30;99.90
75210;DHT22;63796;53.136;14.882;2023-09-18T07:58:37;24.70;99.90
75210;DHT22;63796;53.136;14.882;2023-09-18T08:01:05;24.80;99.90
75210;DHT22;63796;53.136;14.882;2023-09-18T08:03:34;24.80;99.90
75210;DHT22;63796;53.136;14.882;2023-09-18T08:06:02;24.80;99.90
75210;DHT22;63796;53.136;14.882;2023-09-18T08:08:31;24.70;99.90
75210;DHT22;63796;53.136;14.882;2023-09-18T08:11:06;25.30;99.90
75210;DHT22;63796;53.136;14.882;2023-09-18T08:13:36;25.10;99.90
75210;DHT22;63796;53.136;14.882;2023-09-18T08:16:05;25.80;99.90
75210;DHT22;63796;53.136;14.882;2023-09-18T08:18:34;26.00;99.90
75210;DHT22;63796;53.136;14.882;2023-09-18T08:21:02;25.90;99.90
75210;DHT22;63796;53.136;14.882;2023-09-18T08:23:32;25.90;99.90
75210;DHT22;63796;53.136;14.882;2023-09-18T08:25:59;26.10;99.90
75210;DHT22;63796;53.136;14.882;2023-09-18T08:28:28;26.60;99.90
75210;DHT22;63796;53.136;14.882;2023-09-18T08:30:56;26.80;99.90
75210;DHT22;63796;53.136;14.882;2023-09-18T08:33:25;28.00;99.90
75210;DHT22;63796;53.136;14.882;2023-09-18T08:35:53;28.40;99.90
75210;DHT22;63796;53.136;14.882;2023-09-18T08:38:21;27.20;99.90
75210;DHT22;63796;53.136;14.882;2023-09-18T08:40:49;27.00;99.90
75210;DHT22;63796;53.136;14.882;2023-09-18T08:43:18;27.40;99.90
75210;DHT22;63796;53.136;14.882;2023-09-18T08:45:56;29.20;99.90
75210;DHT22;63796;53.136;14.882;2023-09-18T08:48:29;30.50;99.90
75210;DHT22;63796;53.136;14.882;2023-09-18T08:51:02;30.50;99.90
75210;DHT22;63796;53.136;14.882;2023-09-18T08:53:32;30.30;99.90
75210;DHT22;63796;53.136;14.882;2023-09-18T08:56:01;30.40;99.90
75210;DHT22;63796;53.136;14.882;2023-09-18T08:58:32;29.90;99.90
75210;DHT22;63796;53.136;14.882;2023-09-18T09:01:06;29.50;99.90
75210;DHT22;63796;53.136;14.882;2023-09-18T09:03:37;30.20;99.90
75210;DHT22;63796;53.136;14.882;2023-09-18T09:06:06;30.20;99.90
75210;DHT22;63796;53.136;14.882;2023-09-18T09:08:34;30.10;99.90
75210;DHT22;63796;53.136;14.882;2023-09-18T09:11:03;31.50;99.90
75210;DHT22;63796;53.136;14.882;2023-09-18T09:13:30;31.60;99.90
75210;DHT22;63796;53.136;14.882;2023-09-18T09:16:12;30.50;99.90
75210;DHT22;63796;53.136;14.882;2023-09-18T09:18:47;30.70;99.90
75210;DHT22;63796;53.136;14.882;2023-09-18T09:21:18;30.90;99.90
75210;DHT22;63796;53.136;14.882;2023-09-18T09:23:51;30.10;99.90
75210;DHT22;63796;53.136;14.882;2023-09-18T09:26:23;31.00;99.90
75210;DHT22;63796;53.136;14.882;2023-09-18T09:28:51;31.00;99.90
75210;DHT22;63796;53.136;14.882;2023-09-18T09:31:29;30.30;99.90
75210;DHT22;63796;53.136;14.882;2023-09-18T09:33:58;29.40;99.90
75210;DHT22;63796;53.136;14.882;2023-09-18T09:36:26;28.90;99.90
75210;DHT22;63796;53.136;14.882;2023-09-18T09:38:54;28.80;99.90
75210;DHT22;63796;53.136;14.882;2023-09-18T09:41:26;28.80;99.90
75210;DHT22;63796;53.136;14.882;2023-09-18T09:43:57;28.50;99.90
75210;DHT22;63796;53.136;14.882;2023-09-18T09:46:25;28.20;99.90
75210;DHT22;63796;53.136;14.882;2023-09-18T09:51:33;28.80;99.90
75210;DHT22;63796;53.136;14.882;2023-09-18T09:54:01;29.10;99.90
75210;DHT22;63796;53.136;14.882;2023-09-18T09:56:46;29.00;99.90
75210;DHT22;63796;53.136;14.882;2023-09-18T09:59:21;28.70;99.90
75210;DHT22;63796;53.136;14.882;2023-09-18T10:01:49;28.80;99.90
75210;DHT22;63796;53.136;14.882;2023-09-18T10:04:18;29.00;99.90
75210;DHT22;63796;53.136;14.882;2023-09-18T10:07:05;28.60;99.90
75210;DHT22;63796;53.136;14.882;2023-09-18T10:09:35;29.30;99.90
75210;DHT22;63796;53.136;14.882;2023-09-18T10:12:06;29.40;99.90
75210;DHT22;63796;53.136;14.882;2023-09-18T10:14:39;29.80;99.90
75210;DHT22;63796;53.136;14.882;2023-09-18T10:17:27;30.00;99.90
75210;DHT22;63796;53.136;14.882;2023-09-18T10:20:01;30.10;99.90
75210;DHT22;63796;53.136;14.882;2023-09-18T10:22:38;30.40;99.90
75210;DHT22;63796;53.136;14.882;2023-09-18T10:25:27;30.80;99.90
75210;DHT22;63796;53.136;14.882;2023-09-18T10:27:56;31.80;99.90
75210;DHT22;63796;53.136;14.882;2023-09-18T10:30:32;33.40;99.90
75210;DHT22;63796;53.136;14.882;2023-09-18T10:33:02;34.40;99.90
75210;DHT22;63796;53.136;14.882;2023-09-18T10:35:29;33.90;99.90
75210;DHT22;63796;53.136;14.882;2023-09-18T10:37:58;34.20;99.90
75210;DHT22;63796;53.136;14.882;2023-09-18T10:40:27;34.00;99.90
75210;DHT22;63796;53.136;14.882;2023-09-18T10:42:57;34.10;99.90
75210;DHT22;63796;53.136;14.882;2023-09-18T10:45:26;34.00;99.90
75210;DHT22;63796;53.136;14.882;2023-09-18T10:47:54;34.30;99.70
75210;DHT22;63796;53.136;14.882;2023-09-18T10:50:23;34.00;98.70
75210;DHT22;63796;53.136;14.882;2023-09-18T10:52:52;32.80;99.90
75210;DHT22;63796;53.136;14.882;2023-09-18T10:55:21;32.90;99.90
75210;DHT22;63796;53.136;14.882;2023-09-18T10:57:49;34.10;99.20
75210;DHT22;63796;53.136;14.882;2023-09-18T11:00:22;33.50;98.20
75210;DHT22;63796;53.136;14.882;2023-09-18T11:02:52;33.30;99.90
75210;DHT22;63796;53.136;14.882;2023-09-18T11:05:28;32.90;99.90
75210;DHT22;63796;53.136;14.882;2023-09-18T11:11:07;32.20;99.90
75210;DHT22;63796;53.136;14.882;2023-09-18T11:13:41;32.00;99.90
75210;DHT22;63796;53.136;14.882;2023-09-18T11:21:26;32.90;99.60
75210;DHT22;63796;53.136;14.882;2023-09-18T11:23:59;32.60;99.90
75210;DHT22;63796;53.136;14.882;2023-09-18T11:26:36;32.20;99.90
75210;DHT22;63796;53.136;14.882;2023-09-18T11:29:05;31.60;99.90
75210;DHT22;63796;53.136;14.882;2023-09-18T11:31:56;31.10;99.70
75210;DHT22;63796;53.136;14.882;2023-09-18T11:34:32;31.10;98.90
75210;DHT22;63796;53.136;14.882;2023-09-18T11:37:02;32.40;96.50
75210;DHT22;63796;53.136;14.882;2023-09-18T11:39:47;32.20;96.90
75210;DHT22;63796;53.136;14.882;2023-09-18T11:42:17;31.00;98.40
75210;DHT22;63796;53.136;14.882;2023-09-18T11:44:47;29.60;99.90
75210;DHT22;63796;53.136;14.882;2023-09-18T11:47:15;29.20;99.80
75210;DHT22;63796;53.136;14.882;2023-09-18T11:52:22;29.30;99.90
75210;DHT22;63796;53.136;14.882;2023-09-18T11:54:52;29.50;99.90
75210;DHT22;63796;53.136;14.882;2023-09-18T11:57:22;29.00;99.90
75210;DHT22;63796;53.136;14.882;2023-09-18T11:59:51;28.90;99.90
75210;DHT22;63796;53.136;14.882;2023-09-18T12:02:29;29.00;99.90
75210;DHT22;63796;53.136;14.882;2023-09-18T12:05:09;29.40;99.90
75210;DHT22;63796;53.136;14.882;2023-09-18T12:07:38;29.60;99.90
75210;DHT22;63796;53.136;14.882;2023-09-18T12:10:11;29.50;99.90
75210;DHT22;63796;53.136;14.882;2023-09-18T12:12:41;29.80;99.90
75210;DHT22;63796;53.136;14.882;2023-09-18T12:15:13;29.80;99.90
75210;DHT22;63796;53.136;14.882;2023-09-18T12:17:44;30.30;99.90
75210;DHT22;63796;53.136;14.882;2023-09-18T12:20:16;30.40;99.90
75210;DHT22;63796;53.136;14.882;2023-09-18T12:22:47;30.20;99.90
75210;DHT22;63796;53.136;14.882;2023-09-18T12:25:15;30.40;99.90
75210;DHT22;63796;53.136;14.882;2023-09-18T12:27:46;30.30;99.90
75210;DHT22;63796;53.136;14.882;2023-09-18T12:30:19;30.20;99.90
75210;DHT22;63796;53.136;14.882;2023-09-18T12:32:50;30.40;99.90
75210;DHT22;63796;53.136;14.882;2023-09-18T12:35:18;29.80;99.90
75210;DHT22;63796;53.136;14.882;2023-09-18T12:37:46;29.30;99.90
75210;DHT22;63796;53.136;14.882;2023-09-18T12:42:50;30.20;99.90
75210;DHT22;63796;53.136;14.882;2023-09-18T12:45:18;30.90;99.90
75210;DHT22;63796;53.136;14.882;2023-09-18T12:47:46;31.40;99.20
75210;DHT22;63796;53.136;14.882;2023-09-18T12:50:15;31.80;98.40
75210;DHT22;63796;53.136;14.882;2023-09-18T12:52:42;31.60;98.90
75210;DHT22;63796;53.136;14.882;2023-09-18T12:55:26;31.60;99.80
75210;DHT22;63796;53.136;14.882;2023-09-18T12:57:54;31.30;98.90
75210;DHT22;63796;53.136;14.882;2023-09-18T13:00:22;31.70;98.30
75210;DHT22;63796;53.136;14.882;2023-09-18T13:02:50;31.70;98.10
75210;DHT22;63796;53.136;14.882;2023-09-18T13:05:22;30.20;99.50
75210;DHT22;63796;53.136;14.882;2023-09-18T13:07:54;29.20;99.90
75210;DHT22;63796;53.136;14.882;2023-09-18T13:10:22;28.60;99.90
75210;DHT22;63796;53.136;14.882;2023-09-18T13:12:54;28.10;99.90
75210;DHT22;63796;53.136;14.882;2023-09-18T13:15:30;27.70;99.90
75210;DHT22;63796;53.136;14.882;2023-09-18T13:17:59;27.70;99.90
75210;DHT22;63796;53.136;14.882;2023-09-18T13:20:28;27.60;99.90
75210;DHT22;63796;53.136;14.882;2023-09-18T13:22:58;27.60;99.90
75210;DHT22;63796;53.136;14.882;2023-09-18T13:25:37;27.60;99.90
75210;DHT22;63796;53.136;14.882;2023-09-18T13:28:07;27.60;99.90
75210;DHT22;63796;53.136;14.882;2023-09-18T13:30:36;27.60;99.90
75210;DHT22;63796;53.136;14.882;2023-09-18T13:33:11;27.60;99.90
75210;DHT22;63796;53.136;14.882;2023-09-18T13:35:40;27.60;99.90
75210;DHT22;63796;53.136;14.882;2023-09-18T13:38:10;27.60;99.90
75210;DHT22;63796;53.136;14.882;2023-09-18T13:40:41;27.60;99.90
75210;DHT22;63796;53.136;14.882;2023-09-18T13:43:09;27.50;99.90
75210;DHT22;63796;53.136;14.882;2023-09-18T13:45:37;27.30;99.90
75210;DHT22;63796;53.136;14.882;2023-09-18T13:48:05;27.30;99.90
75210;DHT22;63796;53.136;14.882;2023-09-18T13:50:34;27.30;99.90
75210;DHT22;63796;53.136;14.882;2023-09-18T13:53:03;27.10;99.90
75210;DHT22;63796;53.136;14.882;2023-09-18T13:55:33;27.00;99.90
75210;DHT22;63796;53.136;14.882;2023-09-18T13:58:01;26.90;99.90
75210;DHT22;63796;53.136;14.882;2023-09-18T14:00:33;26.80;99.90
75210;DHT22;63796;53.136;14.882;2023-09-18T14:03:00;26.80;99.90
75210;DHT22;63796;53.136;14.882;2023-09-18T14:05:30;26.80;99.90
75210;DHT22;63796;53.136;14.882;2023-09-18T14:08:00;26.80;99.90
75210;DHT22;63796;53.136;14.882;2023-09-18T14:10:28;26.70;99.90
75210;DHT22;63796;53.136;14.882;2023-09-18T14:12:55;26.50;99.90
75210;DHT22;63796;53.136;14.882;2023-09-18T14:15:24;26.40;99.90
75210;DHT22;63796;53.136;14.882;2023-09-18T14:17:51;26.40;99.90
75210;DHT22;63796;53.136;14.882;2023-09-18T14:20:19;26.20;99.90
75210;DHT22;63796;53.136;14.882;2023-09-18T14:22:46;26.10;99.90
75210;DHT22;63796;53.136;14.882;2023-09-18T14:25:17;26.00;99.90
75210;DHT22;63796;53.136;14.882;2023-09-18T14:27:47;25.90;99.90
75210;DHT22;63796;53.136;14.882;2023-09-18T14:30:15;25.80;99.90
75210;DHT22;63796;53.136;14.882;2023-09-18T14:32:42;25.70;99.90
75210;DHT22;63796;53.136;14.882;2023-09-18T14:35:10;25.70;99.90
75210;DHT22;63796;53.136;14.882;2023-09-18T14:37:37;25.70;99.90
75210;DHT22;63796;53.136;14.882;2023-09-18T14:40:05;25.70;99.90
75210;DHT22;63796;53.136;14.882;2023-09-18T14:42:32;25.60;99.90
75210;DHT22;63796;53.136;14.882;2023-09-18T14:45:00;25.60;99.90
75210;DHT22;63796;53.136;14.882;2023-09-18T14:47:29;25.60;99.90
75210;DHT22;63796;53.136;14.882;2023-09-18T14:49:56;25.50;99.90
75210;DHT22;63796;53.136;14.882;2023-09-18T14:52:26;25.50;99.90
75210;DHT22;63796;53.136;14.882;2023-09-18T14:54:53;25.50;99.90
75210;DHT22;63796;53.136;14.882;2023-09-18T14:57:21;25.50;99.90
75210;DHT22;63796;53.136;14.882;2023-09-18T14:59:48;25.50;99.90
75210;DHT22;63796;53.136;14.882;2023-09-18T15:02:16;25.50;99.90
75210;DHT22;63796;53.136;14.882;2023-09-18T15:04:45;25.30;99.90
75210;DHT22;63796;53.136;14.882;2023-09-18T15:07:12;25.30;99.90
75210;DHT22;63796;53.136;14.882;2023-09-18T15:09:40;25.30;99.90
75210;DHT22;63796;53.136;14.882;2023-09-18T15:12:08;25.30;99.90
75210;DHT22;63796;53.136;14.882;2023-09-18T15:14:38;25.30;99.90
75210;DHT22;63796;53.136;14.882;2023-09-18T15:17:07;25.30;99.90
75210;DHT22;63796;53.136;14.882;2023-09-18T15:19:35;25.30;99.90
75210;DHT22;63796;53.136;14.882;2023-09-18T15:22:02;25.30;99.90
75210;DHT22;63796;53.136;14.882;2023-09-18T15:24:30;25.30;99.90
75210;DHT22;63796;53.136;14.882;2023-09-18T15:26:57;25.30;99.90
75210;DHT22;63796;53.136;14.882;2023-09-18T15:29:25;25.30;99.90
75210;DHT22;63796;53.136;14.882;2023-09-18T15:32:00;25.20;99.90
75210;DHT22;63796;53.136;14.882;2023-09-18T15:34:32;25.20;99.90
75210;DHT22;63796;53.136;14.882;2023-09-18T15:37:00;25.10;99.90
75210;DHT22;63796;53.136;14.882;2023-09-18T15:39:33;25.10;99.90
75210;DHT22;63796;53.136;14.882;2023-09-18T15:42:03;25.10;99.90
75210;DHT22;63796;53.136;14.882;2023-09-18T15:44:33;25.00;99.90
75210;DHT22;63796;53.136;14.882;2023-09-18T15:47:02;25.00;99.90
75210;DHT22;63796;53.136;14.882;2023-09-18T15:49:31;25.00;99.90